Prospect Creek, Prospect Cree, AK

4:04 PM AKDT on August 20, 2014 (GMT -0800)
Bettles | Change Station
CLOSE
Current Station
Airport
Location: Bettles,
Elevation: 643 ft
Nearby Weather Stations

Elev 643 ft 66.91 °N, 151.53 °W | Updated 11 minutes ago

Mostly Cloudy
Mostly Cloudy
61 °F
Feels Like 61 °F
N
4
Wind Variable Wind from SSE

Today
High -- | Low -- °F
--% Chance of Precip.
Yesterday
High -- | Low -- °F
Precip. -- in
5:52 AM 10:16 PM
Waning Crescent, 18% visible
Pressure 30.08 in
Visibility 10.0 miles
Clouds Scattered Clouds 3800 ft
Mostly Cloudy 8500 ft
Mostly Cloudy 20000 ft
Dew Point 46 °F
Humidity 58%
Rainfall 0.00 in
Snow Depth Not available.
UV 2 out of 12
Pollen Not available.
Air Quality Not available.
Flu Activity Not available.
METAR PABT 202353Z 16003KT 10SM SCT038 BKN085 BKN200 16/08 A3005 RMK AO2 SLP185 T01610078 10167 20089 58006

More Conditions Fewer Conditions

Pressure 30.08 in
Visibility 10.0 miles
Clouds Scattered Clouds 3800 ft
Mostly Cloudy 8500 ft
Mostly Cloudy 20000 ft
Dew Point 46 °F
Humidity 58%
Rainfall 0.00 in
Snow Depth Not available.
UV 2 out of 12
Pollen Not available.
Air Quality Not available.
Flu Activity Not available.
METAR PABT 202353Z 16003KT 10SM SCT038 BKN085 BKN200 16/08 A3005 RMK AO2 SLP185 T01610078 10167 20089 58006

More Conditions Fewer Conditions

10-Day Weather Forecast

Almanac

Astronomy

Aug. 20, 2014 Rise Set
Actual Time 5:52 AM AKDT 10:16 PM AKDT
Civil Twilight 4:39 AM AKDT 11:27 PM AKDT
Nautical Twilight 2:38 AM AKDT 1:33 AM AKDT
Astronomical Twilight Sun does not rise Sun does not rise
Moon 12:41 AM AKDT (8/20) 8:02 PM AKDT (8/20)
Length of Visible Light 18h 48m
Length of Day
16h 23m
Tomorrow will be 7m 45s shorter.
Waning Crescent, 18% of the Moon is Illuminated
Today
Waning Crescent
Aug 25
New
Sep 2
First Quarter
Sep 8
Full
Sep 15
Last Quarter

Today's Extremes

State Highs State Lows

Community

WunderPhotos

Upload Photos

1,745,807 photos uploaded!

WunderBlogs® & News

Nearby

Snow Depth

Station Depth Elevation
Coldfoot 0 in 1040 ft
Atigun Pass 0 in 4800 ft
Fort Yukon 1 in 430 ft
Little Chena Ridge 1 in 2000 ft
Eagle Summit 0 in 3650 ft

Earthquake Activity

City Distance Mag. Time & Date
No recent earthquake activity has been reported nearby.
Minimum magnitude displayed is 2.5.

Coastal Water Temperatures

Place Temperature
No Stations Reporting

Nearby Weather Stations